METAR Data
IDs: Format: Raw Decoded Include TAF

Data at: 1731 UTC 21 Sep 2018

KCPT 211715Z AUTO 16010G17KT 10SM FEW018 BKN022 BKN028 28/25 A2999 RMK AO2
KCPT 211655Z AUTO 17008G16KT 10SM SCT015 BKN022 OVC035 27/25 A2999 RMK AO2
KCPT 211635Z AUTO 17010KT 10SM BKN015 BKN021 OVC033 27/25 A2999 RMK AO2
KCPT 211615Z AUTO 17011G18KT 10SM BKN015 BKN021 OVC032 27/25 A3000 RMK AO2
KCPT 211555Z AUTO 16010G15KT 10SM BKN015 OVC023 27/25 A2999 RMK AO2
KCPT 211535Z AUTO 16009G15KT 10SM BKN013 OVC022 26/25 A2999 RMK AO2
KCPT 211515Z AUTO 16010KT 10SM BKN014 26/26 A2999 RMK AO2
KCPT 211455Z AUTO 16011KT 10SM BKN011 BKN016 26/26 A2998 RMK AO2
KCPT 211435Z AUTO 16010KT 9SM FEW008 BKN014 25/25 A2998 RMK AO2
KCPT 211415Z AUTO 16011G16KT 6SM -DZ FEW006 SCT014 25/25 A2998 RMK AO2
KCPT 211355Z AUTO 16010KT 4SM -RA BKN006 BKN014 25/25 A2997 RMK AO2
KCPT 211335Z AUTO 16008G15KT 9SM BKN005 25/25 A2997 RMK AO2
KCPT 211315Z AUTO 16010KT 9SM OVC006 25/25 A2996 RMK AO2
KCPT 211255Z AUTO 15007G14KT 9SM BKN007 BKN017 OVC022 24/24 A2996 RMK AO2
KCPT 211235Z AUTO 15008KT 9SM SCT006 BKN019 OVC023 24/24 A2996 RMK AO2
KCPT 211215Z AUTO 16008KT 8SM BKN006 BKN016 OVC022 24/24 A2996 RMK AO2
KCPT 211155Z AUTO 16007KT 9SM BKN006 OVC016 24/24 A2996 RMK AO2
KCPT 211135Z AUTO 16008KT 10SM OVC006 24/24 A2996 RMK AO2
KCPT 211115Z AUTO 16005KT 8SM BKN006 OVC016 24/24 A2996 RMK AO2
KCPT 211055Z AUTO 17007KT 8SM BKN006 BKN018 OVC075 24/24 A2996 RMK AO2
KCPT 211035Z AUTO 16008KT 8SM OVC006 24/24 A2995 RMK AO2
KCPT 211015Z AUTO 17010KT 10SM BKN006 OVC017 24/24 A2995 RMK AO2
KCPT 210955Z AUTO 16009G14KT 10SM BKN006 BKN011 OVC095 24/24 A2995 RMK AO2
KCPT 210935Z AUTO 17011KT 10SM OVC005 24/24 A2995 RMK AO2
KCPT 210915Z AUTO 17010KT 10SM OVC006 24/24 A2995 RMK AO2
KCPT 210855Z AUTO 17010KT 10SM OVC006 23/23 A2995 RMK AO2
KCPT 210835Z AUTO 16007KT 10SM OVC007 23/23 A2995 RMK AO2
KCPT 210815Z AUTO 16007KT 10SM OVC009 23/23 A2995 RMK AO2
KCPT 210755Z AUTO 16008KT 10SM BKN011 BKN018 OVC075 23/23 A2995 RMK AO2
KCPT 210735Z AUTO 16008KT 10SM BKN012 BKN018 BKN080 23/23 A2995 RMK AO2
KCPT 210715Z AUTO 16008KT 10SM SCT012 OVC080 23/23 A2995 RMK AO2
KCPT 210655Z AUTO 16008KT 10SM BKN015 BKN070 OVC080 23/23 A2996 RMK AO2
KCPT 210635Z AUTO 14007KT 10SM SCT016 BKN043 OVC065 23/23 A2996 RMK AO2
KCPT 210615Z AUTO 16007KT 10SM FEW023 BKN050 OVC065 23/23 A2996 RMK AO2
KCPT 210555Z AUTO 15006G11KT 10SM OVC055 23/23 A2997 RMK AO2
KCPT 210535Z AUTO 15006KT 10SM OVC055 22/22 A2997 RMK AO2
KCPT 210515Z AUTO 16006KT 10SM BKN060 OVC065 22/22 A2997 RMK AO2
KCPT 210455Z AUTO 15008KT 10SM OVC060 22/22 A2998 RMK AO2
KCPT 210435Z AUTO 15007KT 10SM BKN065 BKN085 22/22 A2998 RMK AO2
KCPT 210415Z AUTO 15008KT 10SM FEW055 BKN065 OVC120 22/22 A2998 RMK AO2
KCPT 210355Z AUTO 15006G12KT 10SM FEW030 SCT070 BKN100 22/22 A2997 RMK AO2
KCPT 210335Z AUTO 16008KT 9SM -DZ FEW046 SCT070 BKN090 22/22 A2997 RMK AO2
KCPT 210315Z AUTO 17012KT 10SM FEW090 OVC120 23/22 A2997 RMK AO2
KCPT 210255Z AUTO 17013KT 10SM 23/21 A2998 RMK AO2
KCPT 210235Z AUTO 17009KT 22/21 A2998 RMK AO2 PWINO
KCPT 202235Z AUTO 21005KT 3SM -RA CLR 23/22 A2993 RMK AO2 LTG DSNT N AND E
KCPT 202215Z AUTO 21008KT 3SM -RA FEW050 23/23 A2993 RMK AO2 LTG DSNT SW-N
KCPT 202155Z AUTO 22005G10KT 3SM VCTS RA FEW002 SCT035 BKN046 24/23 A2993 RMK AO2 LTG DSNT ALQDS
KCPT 202135Z AUTO 22015G21KT 8SM VCTS DZ FEW004 FEW034 BKN047 23/22 A2994 RMK AO2 LTG DSNT ALQDS
KCPT 202115Z AUTO 16014KT 10SM VCTS FEW049 SCT060 SCT090 30/21 A2991 RMK AO2 LTG DSNT S-W
KCPT 202055Z AUTO 13011G17KT 10SM VCTS SCT047 31/21 A2991 RMK AO2 LTG DSNT S-W
KCPT 202035Z AUTO 16012G18KT 10SM VCTS FEW044 31/21 A2991 RMK AO2 LTG DSNT S AND SW
KCPT 202015Z AUTO 15011G21KT 10SM FEW038 FEW055 FEW065 32/22 A2991 RMK AO2 LTG DSNT S AND SW
KCPT 201955Z AUTO 15012KT 10SM FEW037 FEW042 FEW055 31/23 A2993 RMK AO2 LTG DSNT SW
KCPT 201935Z AUTO 19011KT 10SM FEW036 FEW044 FEW060 32/23 A2994 RMK AO2
KCPT 201915Z AUTO 17012KT 10SM FEW041 FEW050 SCT065 31/23 A2995 RMK AO2
KCPT 201855Z AUTO 15010KT 10SM VCTS FEW039 FEW045 SCT050 31/23 A2995 RMK AO2 LTG DSNT SW
KCPT 201835Z AUTO 18010G17KT 10SM FEW037 31/23 A2996 RMK AO2
KCPT 201815Z AUTO 17011KT 10SM CLR 30/23 A2997 RMK AO2
KCPT 201755Z AUTO 16011KT 130V190 10SM CLR 30/23 A2997 RMK AO2
KCPT 201735Z AUTO 16008KT 10SM CLR 30/23 A2998 RMK AO2
KCPT 201715Z AUTO 19012KT 10SM FEW026 30/23 A3000 RMK AO2
KCPT 201655Z AUTO 16009G14KT 10SM FEW024 SCT030 29/24 A3000 RMK AO2
KCPT 201635Z AUTO 18009G15KT 10SM FEW021 29/24 A3001 RMK AO2
KCPT 201615Z AUTO 20012KT 10SM CLR 28/24 A3001 RMK AO2
KCPT 201555Z AUTO 18010G16KT 10SM CLR 27/24 A3001 RMK AO2
KCPT 201535Z AUTO 18009G15KT 10SM CLR 28/24 A3000 RMK AO2
KCPT 201515Z AUTO 18010KT 10SM CLR 28/24 A3000 RMK AO2
KCPT 201455Z AUTO 18009KT 10SM CLR 27/24 A2999 RMK AO2
KCPT 201435Z AUTO 17010KT 10SM CLR 26/24 A2999 RMK AO2
KCPT 201415Z AUTO 18008KT 10SM CLR 25/24 A2999 RMK AO2
KCPT 201355Z AUTO 16008KT 10SM CLR 24/23 A2998 RMK AO2
KCPT 201335Z AUTO 16006KT 10SM CLR 24/23 A2998 RMK AO2
KCPT 201315Z AUTO 17006KT 10SM CLR 24/23 A2997 RMK AO2
KCPT 201255Z AUTO 16006KT 10SM CLR 24/23 A2997 RMK AO2
KCPT 201235Z AUTO 15006KT 10SM CLR 23/23 A2997 RMK AO2
KCPT 201215Z AUTO 15005KT 10SM CLR 23/23 A2996 RMK AO2
KCPT 201155Z AUTO 14005KT 10SM CLR 23/22 A2996 RMK AO2
KCPT 201135Z AUTO 13004KT 10SM CLR 23/22 A2995 RMK AO2
KCPT 201115Z AUTO 16004KT 10SM CLR 23/22 A2995 RMK AO2
KCPT 201055Z AUTO 15005KT 10SM CLR 23/22 A2995 RMK AO2
KCPT 201035Z AUTO 14004KT 10SM CLR 23/22 A2995 RMK AO2
KCPT 201015Z AUTO 16004KT 10SM CLR 23/22 A2995 RMK AO2
KCPT 200955Z AUTO 17004KT 10SM CLR 23/22 A2995 RMK AO2
KCPT 200935Z AUTO 18005KT 10SM CLR 23/22 A2995 RMK AO2
KCPT 200915Z AUTO 16005KT 10SM CLR 23/22 A2995 RMK AO2
KCPT 200855Z AUTO 6.00000006KT 10SM 24/22 A2995 RMK AO2
KCPT 200835Z AUTO 17005KT 10SM 24/22 A2996 RMK AO2
KCPT 200815Z AUTO 17006KT 10SM 24/22 A2996 RMK AO2
KCPT 200755Z AUTO 17006KT 10SM 24/22 A2995 RMK AO2
KCPT 200735Z AUTO 18005KT 10SM 24/22 A2996 RMK AO2
KCPT 200715Z AUTO 17005KT 10SM 24/21 A2996 RMK AO2
KCPT 200655Z AUTO 16004KT 10SM 25/21 A2996 RMK AO2
KCPT 200635Z AUTO 14005KT 10SM CLR 25/21 A2997 RMK AO2
KCPT 200615Z AUTO 17005KT 10SM CLR 25/21 A2997 RMK AO2
KCPT 200555Z AUTO 15005KT 10SM CLR 25/21 A2997 RMK AO2
KCPT 200535Z AUTO 16005KT 10SM CLR 25/21 A2997 RMK AO2